createdAt,value
2022-08-28T00:00:58.736Z,1013.78
2022-08-28T00:01:58.728Z,1013.79
2022-08-28T00:02:58.792Z,1013.74
2022-08-28T00:03:58.759Z,1013.80
2022-08-28T00:04:58.787Z,1013.77
2022-08-28T00:05:58.697Z,1013.74
2022-08-28T00:06:58.679Z,1013.75
2022-08-28T00:07:58.667Z,1013.78
2022-08-28T00:08:58.980Z,1013.78
2022-08-28T00:09:58.781Z,1013.78
2022-08-28T00:10:58.643Z,1013.71
2022-08-28T00:11:58.649Z,1013.71
2022-08-28T00:12:58.639Z,1013.76
2022-08-28T00:13:58.607Z,1013.69
2022-08-28T00:14:58.591Z,1013.74
2022-08-28T00:15:58.627Z,1013.72
2022-08-28T00:16:58.699Z,1013.71
2022-08-28T00:17:58.560Z,1013.74
2022-08-28T00:18:58.563Z,1013.71
2022-08-28T00:19:58.549Z,1013.73
2022-08-28T00:20:58.554Z,1013.73
2022-08-28T00:21:58.512Z,1013.74
2022-08-28T00:22:58.522Z,1013.71
2022-08-28T00:23:59.284Z,1013.66
2022-08-28T00:24:58.510Z,1013.66
2022-08-28T00:25:58.541Z,1013.65
2022-08-28T00:26:58.752Z,1013.71
2022-08-28T00:27:58.446Z,1013.72
2022-08-28T00:28:58.434Z,1013.67
2022-08-28T00:29:58.462Z,1013.74
2022-08-28T00:30:58.461Z,1013.68
2022-08-28T00:31:58.504Z,1013.70
2022-08-28T00:32:58.393Z,1013.71
2022-08-28T00:33:58.390Z,1013.66
2022-08-28T00:34:58.426Z,1013.72
2022-08-28T00:35:58.360Z,1013.68
2022-08-28T00:36:59.297Z,1013.68
2022-08-28T00:37:58.366Z,1013.71
2022-08-28T00:38:58.337Z,1013.74
2022-08-28T00:39:58.360Z,1013.65
2022-08-28T00:40:59.269Z,1013.68
2022-08-28T00:41:58.303Z,1013.74
2022-08-28T00:42:58.313Z,1013.68
2022-08-28T00:43:58.267Z,1013.73
2022-08-28T00:44:58.287Z,1013.73
2022-08-28T00:45:58.251Z,1013.73
2022-08-28T00:46:58.241Z,1013.79
2022-08-28T00:47:58.251Z,1013.81
2022-08-28T00:48:58.539Z,1013.76
2022-08-28T00:49:58.262Z,1013.77
2022-08-28T00:51:00.403Z,1013.76
2022-08-28T00:51:58.199Z,1013.80
2022-08-28T00:52:58.181Z,1013.80
2022-08-28T00:53:59.325Z,1013.76
2022-08-28T00:54:59.235Z,1013.81
2022-08-28T00:55:58.144Z,1013.78
2022-08-28T00:56:58.142Z,1013.74
2022-08-28T00:57:58.162Z,1013.72
2022-08-28T00:58:58.152Z,1013.72
2022-08-28T00:59:58.211Z,1013.70
2022-08-28T01:00:58.116Z,1013.71
2022-08-28T01:01:58.155Z,1013.69
2022-08-28T01:02:58.430Z,1013.74
2022-08-28T01:03:58.087Z,1013.68
2022-08-28T01:04:58.080Z,1013.69
2022-08-28T01:05:58.035Z,1013.69
2022-08-28T01:06:58.024Z,1013.67
2022-08-28T01:07:58.035Z,1013.69
2022-08-28T01:08:59.023Z,1013.74
2022-08-28T01:09:58.131Z,1013.69
2022-08-28T01:10:57.987Z,1013.68
2022-08-28T01:11:57.975Z,1013.71
2022-08-28T01:12:57.954Z,1013.70
2022-08-28T01:13:57.956Z,1013.72
2022-08-28T01:14:58.054Z,1013.70
2022-08-28T01:15:57.980Z,1013.81
2022-08-28T01:16:57.907Z,1013.75
2022-08-28T01:17:57.907Z,1013.76
2022-08-28T01:18:57.900Z,1013.76
2022-08-28T01:19:57.898Z,1013.74
2022-08-28T01:20:57.909Z,1013.78
2022-08-28T01:21:57.880Z,1013.76
2022-08-28T01:22:58.657Z,1013.76
2022-08-28T01:23:57.849Z,1013.83
2022-08-28T01:24:57.820Z,1013.84
2022-08-28T01:25:57.859Z,1013.87
2022-08-28T01:26:57.820Z,1013.89
2022-08-28T01:27:57.832Z,1013.84
2022-08-28T01:28:57.792Z,1013.86
2022-08-28T01:29:57.810Z,1013.80
2022-08-28T01:30:58.171Z,1013.87
2022-08-28T01:31:57.902Z,1013.84
2022-08-28T01:32:59.617Z,1013.87
2022-08-28T01:33:57.756Z,1013.92
2022-08-28T01:34:58.555Z,1013.88
2022-08-28T01:35:57.933Z,1013.90
2022-08-28T01:36:58.533Z,1013.98
2022-08-28T01:37:57.695Z,1013.85
2022-08-28T01:38:57.675Z,1013.92
2022-08-28T01:39:57.731Z,1013.89
2022-08-28T01:40:57.698Z,1013.90
2022-08-28T01:41:57.677Z,1013.89
2022-08-28T01:42:57.627Z,1013.82
2022-08-28T01:43:57.615Z,1013.87
2022-08-28T01:44:57.616Z,1013.87
2022-08-28T01:45:57.725Z,1013.85
2022-08-28T01:46:57.614Z,1013.89
2022-08-28T01:47:57.590Z,1013.86
2022-08-28T01:48:57.567Z,1013.83
2022-08-28T01:49:57.567Z,1013.89
2022-08-28T01:50:57.700Z,1013.83
2022-08-28T01:51:57.559Z,1013.85
2022-08-28T01:52:57.536Z,1013.84
2022-08-28T01:53:57.511Z,1013.77
2022-08-28T01:54:58.056Z,1013.81
2022-08-28T01:55:57.498Z,1013.77
2022-08-28T01:56:57.529Z,1013.77
2022-08-28T01:57:58.541Z,1013.85
2022-08-28T01:58:57.473Z,1013.86
2022-08-28T01:59:57.473Z,1013.84
2022-08-28T02:00:57.479Z,1013.84
2022-08-28T02:01:57.536Z,1013.83
2022-08-28T02:02:57.513Z,1013.88
2022-08-28T02:03:57.468Z,1013.81
2022-08-28T02:04:57.422Z,1013.78
2022-08-28T02:05:57.401Z,1013.78
2022-08-28T02:06:57.383Z,1013.80
2022-08-28T02:07:57.423Z,1013.77
2022-08-28T02:08:57.383Z,1013.79
2022-08-28T02:09:57.357Z,1013.73
2022-08-28T02:10:57.364Z,1013.75
2022-08-28T02:11:57.365Z,1013.71
2022-08-28T02:12:59.111Z,1013.77
2022-08-28T02:13:57.393Z,1013.77
2022-08-28T02:14:57.314Z,1013.77
2022-08-28T02:15:57.385Z,1013.81
2022-08-28T02:16:57.358Z,1013.74
2022-08-28T02:17:57.278Z,1013.80
2022-08-28T02:18:57.259Z,1013.77
2022-08-28T02:19:57.298Z,1013.78
2022-08-28T02:20:57.279Z,1013.82
2022-08-28T02:21:57.237Z,1013.85
2022-08-28T02:22:57.208Z,1013.82
2022-08-28T02:23:57.198Z,1013.84
2022-08-28T02:24:57.190Z,1013.87
2022-08-28T02:25:57.220Z,1013.91
2022-08-28T02:26:57.161Z,1013.93
2022-08-28T02:27:57.148Z,1013.93
2022-08-28T02:28:57.151Z,1013.92
2022-08-28T02:29:57.162Z,1013.90
2022-08-28T02:30:57.497Z,1013.91
2022-08-28T02:31:57.171Z,1013.97
2022-08-28T02:32:57.098Z,1013.92
2022-08-28T02:33:57.133Z,1013.93
2022-08-28T02:34:57.134Z,1013.89
2022-08-28T02:35:57.091Z,1013.89
2022-08-28T02:36:57.083Z,1013.84
2022-08-28T02:37:57.102Z,1013.87
2022-08-28T02:38:57.996Z,1013.93
2022-08-28T02:39:57.469Z,1013.95
2022-08-28T02:40:57.096Z,1013.95
2022-08-28T02:41:57.012Z,1013.95
2022-08-28T02:42:56.984Z,1013.91
2022-08-28T02:43:56.978Z,1013.90
2022-08-28T02:44:56.973Z,1013.91
2022-08-28T02:45:57.000Z,1013.88
2022-08-28T02:46:57.043Z,1013.93
2022-08-28T02:47:56.944Z,1013.88
2022-08-28T02:48:56.917Z,1013.89
2022-08-28T02:49:56.935Z,1013.95
2022-08-28T02:50:56.946Z,1013.86
2022-08-28T02:51:56.924Z,1013.87
2022-08-28T02:52:56.880Z,1013.88
2022-08-28T02:53:56.877Z,1013.90
2022-08-28T02:54:56.867Z,1013.89
2022-08-28T02:55:56.849Z,1013.85
2022-08-28T02:56:56.907Z,1013.82
2022-08-28T02:57:56.832Z,1013.86
2022-08-28T02:58:56.839Z,1013.83
2022-08-28T02:59:56.829Z,1013.79
2022-08-28T03:00:56.890Z,1013.73
2022-08-28T03:01:56.787Z,1013.79
2022-08-28T03:02:56.860Z,1013.79
2022-08-28T03:03:56.761Z,1013.79
2022-08-28T03:04:56.752Z,1013.83
2022-08-28T03:05:56.749Z,1013.75
2022-08-28T03:06:56.771Z,1013.81
2022-08-28T03:07:56.740Z,1013.82
2022-08-28T03:08:56.722Z,1013.78
2022-08-28T03:09:56.712Z,1013.82
2022-08-28T03:10:56.761Z,1013.80
2022-08-28T03:11:56.684Z,1013.81
2022-08-28T03:12:56.702Z,1013.76
2022-08-28T03:13:56.671Z,1013.81
2022-08-28T03:14:56.634Z,1013.76
2022-08-28T03:15:56.635Z,1013.82
2022-08-28T03:16:56.676Z,1013.76
2022-08-28T03:17:56.763Z,1013.82
2022-08-28T03:18:56.595Z,1013.81
2022-08-28T03:19:56.604Z,1013.80
2022-08-28T03:20:56.598Z,1013.84
2022-08-28T03:21:56.574Z,1013.76
2022-08-28T03:22:56.588Z,1013.77
2022-08-28T03:23:56.575Z,1013.74
2022-08-28T03:24:57.316Z,1013.72
2022-08-28T03:25:56.530Z,1013.75
2022-08-28T03:26:56.605Z,1013.75
2022-08-28T03:27:56.497Z,1013.70
2022-08-28T03:28:56.548Z,1013.72
2022-08-28T03:29:56.499Z,1013.67
2022-08-28T03:30:56.605Z,1013.79
2022-08-28T03:31:56.527Z,1013.71
2022-08-28T03:32:56.478Z,1013.72
2022-08-28T03:33:56.556Z,1013.72
2022-08-28T03:34:56.456Z,1013.71
2022-08-28T03:35:56.454Z,1013.70
2022-08-28T03:36:56.489Z,1013.69
2022-08-28T03:37:56.408Z,1013.64
2022-08-28T03:38:56.731Z,1013.63
2022-08-28T03:39:56.429Z,1013.65
2022-08-28T03:40:56.483Z,1013.61
2022-08-28T03:41:56.420Z,1013.59
2022-08-28T03:42:56.380Z,1013.58
2022-08-28T03:43:56.372Z,1013.57
2022-08-28T03:44:56.379Z,1013.57
2022-08-28T03:45:56.365Z,1013.60
2022-08-28T03:46:56.393Z,1013.67
2022-08-28T03:47:56.355Z,1013.63
2022-08-28T03:48:56.343Z,1013.61
2022-08-28T03:49:56.303Z,1013.63
2022-08-28T03:50:56.289Z,1013.64
2022-08-28T03:51:56.304Z,1013.65
2022-08-28T03:52:56.293Z,1013.63
2022-08-28T03:53:56.685Z,1013.63
2022-08-28T03:54:56.225Z,1013.66
2022-08-28T03:55:56.245Z,1013.67
2022-08-28T03:56:56.267Z,1013.72
2022-08-28T03:57:56.187Z,1013.75
2022-08-28T03:58:56.176Z,1013.66
2022-08-28T03:59:56.186Z,1013.69
2022-08-28T04:00:56.305Z,1013.69
2022-08-28T04:01:56.167Z,1013.68
2022-08-28T04:02:56.184Z,1013.64
2022-08-28T04:03:56.120Z,1013.65
2022-08-28T04:04:56.108Z,1013.67
2022-08-28T04:05:56.108Z,1013.66
2022-08-28T04:06:56.079Z,1013.66
2022-08-28T04:07:56.130Z,1013.67
2022-08-28T04:09:00.099Z,1013.62
2022-08-28T04:09:56.069Z,1013.57
2022-08-28T04:10:56.047Z,1013.62
2022-08-28T04:11:56.319Z,1013.60
2022-08-28T04:12:56.108Z,1013.64
2022-08-28T04:13:56.039Z,1013.67
2022-08-28T04:14:56.001Z,1013.62
2022-08-28T04:15:55.995Z,1013.67
2022-08-28T04:17:00.940Z,1013.64
2022-08-28T04:17:56.989Z,1013.63
2022-08-28T04:18:55.992Z,1013.60
2022-08-28T04:19:55.967Z,1013.59
2022-08-28T04:20:55.943Z,1013.64
2022-08-28T04:21:55.952Z,1013.59
2022-08-28T04:22:56.032Z,1013.64
2022-08-28T04:23:55.940Z,1013.64
2022-08-28T04:24:55.896Z,1013.61
2022-08-28T04:25:55.895Z,1013.69
2022-08-28T04:26:55.871Z,1013.63
2022-08-28T04:27:55.895Z,1013.64
2022-08-28T04:28:56.114Z,1013.63
2022-08-28T04:29:55.861Z,1013.62
2022-08-28T04:30:55.836Z,1013.65
2022-08-28T04:31:56.179Z,1013.66
2022-08-28T04:32:55.843Z,1013.63
2022-08-28T04:33:55.804Z,1013.63
2022-08-28T04:34:55.818Z,1013.59
2022-08-28T04:35:55.889Z,1013.65
2022-08-28T04:36:55.855Z,1013.64
2022-08-28T04:37:58.867Z,1013.66
2022-08-28T04:38:55.757Z,1013.69
2022-08-28T04:39:56.053Z,1013.68
2022-08-28T04:40:56.138Z,1013.68
2022-08-28T04:41:55.710Z,1013.65
2022-08-28T04:42:55.720Z,1013.68
2022-08-28T04:43:55.691Z,1013.67
2022-08-28T04:44:55.678Z,1013.74
2022-08-28T04:45:55.715Z,1013.74
2022-08-28T04:46:56.277Z,1013.74
2022-08-28T04:47:55.649Z,1013.72
2022-08-28T04:48:55.661Z,1013.70
2022-08-28T04:49:55.633Z,1013.73
2022-08-28T04:50:55.621Z,1013.73
2022-08-28T04:51:55.621Z,1013.70
2022-08-28T04:52:55.620Z,1013.74
2022-08-28T04:53:55.571Z,1013.72
2022-08-28T04:54:55.583Z,1013.73
2022-08-28T04:55:55.563Z,1013.68
2022-08-28T04:56:55.561Z,1013.78
2022-08-28T04:57:55.623Z,1013.79
2022-08-28T04:58:55.536Z,1013.79
2022-08-28T04:59:55.512Z,1013.78
2022-08-28T05:00:55.565Z,1013.82
2022-08-28T05:01:55.547Z,1013.81
2022-08-28T05:02:55.615Z,1013.83
2022-08-28T05:03:55.491Z,1013.83
2022-08-28T05:04:55.470Z,1013.78
2022-08-28T05:05:55.456Z,1013.87
2022-08-28T05:06:55.448Z,1013.86
2022-08-28T05:07:55.455Z,1013.86
2022-08-28T05:08:55.446Z,1013.84
2022-08-28T05:09:55.413Z,1013.88
2022-08-28T05:10:55.402Z,1013.82
2022-08-28T05:11:55.407Z,1013.81
2022-08-28T05:12:55.398Z,1013.85
2022-08-28T05:13:55.363Z,1013.85
2022-08-28T05:14:55.387Z,1013.88
2022-08-28T05:15:55.420Z,1013.90
2022-08-28T05:16:55.329Z,1013.88
2022-08-28T05:17:55.321Z,1013.88
2022-08-28T05:18:55.309Z,1013.87
2022-08-28T05:19:55.482Z,1013.90
2022-08-28T05:20:55.291Z,1013.86
2022-08-28T05:21:55.300Z,1013.81
2022-08-28T05:22:55.273Z,1013.88
2022-08-28T05:23:55.272Z,1013.85
2022-08-28T05:24:55.240Z,1013.88
2022-08-28T05:25:55.263Z,1013.88
2022-08-28T05:26:55.224Z,1013.84
2022-08-28T05:27:55.273Z,1013.86
2022-08-28T05:28:55.200Z,1013.88
2022-08-28T05:29:58.532Z,1013.89
2022-08-28T05:30:56.211Z,1013.97
2022-08-28T05:31:55.253Z,1013.97
2022-08-28T05:32:55.202Z,1013.97
2022-08-28T05:33:55.166Z,1014.01
2022-08-28T05:34:55.143Z,1014.02
2022-08-28T05:35:55.124Z,1014.09
2022-08-28T05:36:55.114Z,1014.06
2022-08-28T05:37:55.158Z,1014.03
2022-08-28T05:38:55.115Z,1014.05
2022-08-28T05:39:55.154Z,1014.01
2022-08-28T05:40:55.116Z,1014.07
2022-08-28T05:41:55.065Z,1014.03
2022-08-28T05:42:55.165Z,1014.05
2022-08-28T05:43:55.070Z,1014.08
2022-08-28T05:44:55.056Z,1014.11
2022-08-28T05:45:55.069Z,1014.12
2022-08-28T05:46:55.791Z,1014.07
2022-08-28T05:47:55.368Z,1014.14
2022-08-28T05:48:55.217Z,1014.08
2022-08-28T05:49:55.041Z,1014.08
2022-08-28T05:50:54.970Z,1014.10
2022-08-28T05:51:54.959Z,1014.09
2022-08-28T05:52:54.965Z,1014.16
2022-08-28T05:53:54.919Z,1014.14
2022-08-28T05:54:54.922Z,1014.11
2022-08-28T05:55:54.900Z,1014.09
2022-08-28T05:56:54.936Z,1014.12
2022-08-28T05:57:54.905Z,1014.17
2022-08-28T05:58:54.929Z,1014.22
2022-08-28T05:59:54.874Z,1014.23
2022-08-28T06:00:54.904Z,1014.21
2022-08-28T06:01:54.951Z,1014.21
2022-08-28T06:02:54.842Z,1014.20
2022-08-28T06:03:54.947Z,1014.23
2022-08-28T06:04:54.825Z,1014.21
2022-08-28T06:05:54.794Z,1014.18
2022-08-28T06:06:54.828Z,1014.20
2022-08-28T06:07:54.837Z,1014.19
2022-08-28T06:08:58.541Z,1014.18
2022-08-28T06:09:54.763Z,1014.19
2022-08-28T06:10:54.763Z,1014.19
2022-08-28T06:11:54.744Z,1014.18
2022-08-28T06:12:54.784Z,1014.22
2022-08-28T06:13:54.778Z,1014.26
2022-08-28T06:14:54.793Z,1014.25
2022-08-28T06:15:54.764Z,1014.23
2022-08-28T06:16:54.783Z,1014.23
2022-08-28T06:17:54.781Z,1014.30
2022-08-28T06:18:54.666Z,1014.26
2022-08-28T06:19:54.724Z,1014.22
2022-08-28T06:20:54.650Z,1014.28
2022-08-28T06:21:54.647Z,1014.33
2022-08-28T06:22:54.640Z,1014.31
2022-08-28T06:23:54.614Z,1014.32
2022-08-28T06:24:54.939Z,1014.34
2022-08-28T06:25:54.581Z,1014.35
2022-08-28T06:26:56.491Z,1014.31
2022-08-28T06:27:54.579Z,1014.34
2022-08-28T06:28:54.559Z,1014.40
2022-08-28T06:29:54.568Z,1014.33
2022-08-28T06:31:18.099Z,1014.37
2022-08-28T06:31:55.565Z,1014.36
2022-08-28T06:32:54.534Z,1014.37
2022-08-28T06:33:54.643Z,1014.41
2022-08-28T06:34:54.859Z,1014.32
2022-08-28T06:35:54.513Z,1014.33
2022-08-28T06:36:54.578Z,1014.37
2022-08-28T06:37:54.495Z,1014.40
2022-08-28T06:38:54.584Z,1014.48
2022-08-28T06:39:54.538Z,1014.40
2022-08-28T06:40:54.644Z,1014.41
2022-08-28T06:41:54.434Z,1014.42
2022-08-28T06:42:54.414Z,1014.37
2022-08-28T06:43:54.424Z,1014.47
2022-08-28T06:44:54.554Z,1014.43
2022-08-28T06:45:54.521Z,1014.42
2022-08-28T06:46:54.408Z,1014.43
2022-08-28T06:47:54.353Z,1014.44
2022-08-28T06:48:54.342Z,1014.46
2022-08-28T06:49:54.324Z,1014.48
2022-08-28T06:50:54.346Z,1014.45
2022-08-28T06:51:54.337Z,1014.51
2022-08-28T06:52:54.327Z,1014.47
2022-08-28T06:53:54.297Z,1014.53
2022-08-28T06:54:55.961Z,1014.54
2022-08-28T06:55:54.271Z,1014.57
2022-08-28T06:56:54.287Z,1014.51
2022-08-28T06:57:54.281Z,1014.55
2022-08-28T06:58:54.245Z,1014.49
2022-08-28T06:59:54.240Z,1014.52
2022-08-28T07:01:02.257Z,1014.50
2022-08-28T07:01:55.345Z,1014.56
2022-08-28T07:02:54.277Z,1014.57
2022-08-28T07:03:54.201Z,1014.53
2022-08-28T07:04:54.235Z,1014.58
2022-08-28T07:05:54.153Z,1014.57
2022-08-28T07:06:55.010Z,1014.54
2022-08-28T07:07:54.241Z,1014.56
2022-08-28T07:08:54.131Z,1014.58
2022-08-28T07:09:54.123Z,1014.57
2022-08-28T07:10:54.115Z,1014.58
2022-08-28T07:11:54.101Z,1014.59
2022-08-28T07:12:54.111Z,1014.60
2022-08-28T07:13:54.118Z,1014.60
2022-08-28T07:14:54.066Z,1014.58
2022-08-28T07:15:54.111Z,1014.59
2022-08-28T07:16:54.087Z,1014.67
2022-08-28T07:17:54.023Z,1014.62
2022-08-28T07:18:54.059Z,1014.67
2022-08-28T07:19:54.046Z,1014.58
2022-08-28T07:20:53.995Z,1014.64
2022-08-28T07:21:54.045Z,1014.63
2022-08-28T07:22:55.917Z,1014.69
2022-08-28T07:23:54.970Z,1014.70
2022-08-28T07:24:53.954Z,1014.72
2022-08-28T07:25:54.270Z,1014.71
2022-08-28T07:26:53.953Z,1014.69
2022-08-28T07:27:53.937Z,1014.78
2022-08-28T07:29:09.937Z,1014.69
2022-08-28T07:29:54.968Z,1014.74
2022-08-28T07:30:53.937Z,1014.74
2022-08-28T07:31:53.876Z,1014.72
2022-08-28T07:32:54.061Z,1014.73
2022-08-28T07:33:54.183Z,1014.72
2022-08-28T07:34:53.848Z,1014.70
2022-08-28T07:35:53.829Z,1014.80
2022-08-28T07:36:53.868Z,1014.78
2022-08-28T07:37:53.821Z,1014.79
2022-08-28T07:38:53.818Z,1014.79
2022-08-28T07:39:53.819Z,1014.84
2022-08-28T07:40:53.780Z,1014.80
2022-08-28T07:41:53.823Z,1014.89
2022-08-28T07:42:53.760Z,1014.78
2022-08-28T07:43:53.750Z,1014.83
2022-08-28T07:44:53.742Z,1014.82
2022-08-28T07:45:53.817Z,1014.83
2022-08-28T07:46:53.799Z,1014.82
2022-08-28T07:47:53.729Z,1014.83
2022-08-28T07:48:53.725Z,1014.79
2022-08-28T07:49:53.771Z,1014.88
2022-08-28T07:50:53.693Z,1014.83
2022-08-28T07:51:54.376Z,1014.91
2022-08-28T07:52:53.655Z,1014.91
2022-08-28T07:53:53.655Z,1014.89
2022-08-28T07:54:53.636Z,1014.91
2022-08-28T07:55:53.614Z,1014.92
2022-08-28T07:56:53.640Z,1014.89
2022-08-28T07:57:54.495Z,1014.94
2022-08-28T07:58:53.894Z,1014.92
2022-08-28T07:59:53.632Z,1014.93
2022-08-28T08:00:53.894Z,1014.86
2022-08-28T08:01:53.573Z,1014.88
2022-08-28T08:02:53.577Z,1014.96
2022-08-28T08:03:55.954Z,1014.93
2022-08-28T08:04:54.545Z,1014.90
2022-08-28T08:05:53.507Z,1014.95
2022-08-28T08:06:57.844Z,1014.97
2022-08-28T08:07:53.519Z,1014.91
2022-08-28T08:08:53.769Z,1014.90
2022-08-28T08:09:53.887Z,1014.93
2022-08-28T08:10:53.448Z,1014.86
2022-08-28T08:11:53.605Z,1014.92
2022-08-28T08:12:53.448Z,1014.98
2022-08-28T08:13:53.464Z,1014.95
2022-08-28T08:14:53.450Z,1014.96
2022-08-28T08:15:53.485Z,1014.95
2022-08-28T08:16:53.393Z,1015.00
2022-08-28T08:17:53.410Z,1015.01
2022-08-28T08:18:53.400Z,1014.96
2022-08-28T08:19:53.435Z,1015.02
2022-08-28T08:20:53.401Z,1014.97
2022-08-28T08:21:55.049Z,1014.93
2022-08-28T08:22:53.333Z,1014.95
2022-08-28T08:23:53.334Z,1015.01
2022-08-28T08:24:53.344Z,1014.98
2022-08-28T08:25:53.324Z,1015.01
2022-08-28T08:26:59.729Z,1015.00
2022-08-28T08:27:54.273Z,1015.02
2022-08-28T08:28:53.252Z,1015.02
2022-08-28T08:29:53.280Z,1014.95
2022-08-28T08:30:53.341Z,1015.03
2022-08-28T08:31:53.562Z,1014.99
2022-08-28T08:32:53.276Z,1015.03
2022-08-28T08:33:53.227Z,1015.04
2022-08-28T08:34:53.249Z,1015.03
2022-08-28T08:35:53.196Z,1015.08
2022-08-28T08:36:53.176Z,1015.11
2022-08-28T08:37:53.267Z,1015.13
2022-08-28T08:38:59.459Z,1015.13
2022-08-28T08:39:54.236Z,1015.15
2022-08-28T08:40:53.155Z,1015.14
2022-08-28T08:41:53.118Z,1015.12
2022-08-28T08:42:53.135Z,1015.27
2022-08-28T08:43:53.121Z,1015.18
2022-08-28T08:44:53.469Z,1015.19
2022-08-28T08:45:53.104Z,1015.18
2022-08-28T08:46:53.980Z,1015.21
2022-08-28T08:47:53.119Z,1015.18
2022-08-28T08:48:53.062Z,1015.16
2022-08-28T08:49:53.883Z,1015.22
2022-08-28T08:50:53.040Z,1015.24
2022-08-28T08:51:53.355Z,1015.23
2022-08-28T08:52:53.022Z,1015.21
2022-08-28T08:53:53.000Z,1015.21
2022-08-28T08:54:56.414Z,1015.23
2022-08-28T08:55:53.982Z,1015.21
2022-08-28T08:56:52.960Z,1015.14
2022-08-28T08:57:52.996Z,1015.19
2022-08-28T08:58:53.033Z,1015.20
2022-08-28T08:59:53.332Z,1015.18
2022-08-28T09:00:53.243Z,1015.21
2022-08-28T09:01:52.979Z,1015.15
2022-08-28T09:02:52.895Z,1015.22
2022-08-28T09:03:53.033Z,1015.23
2022-08-28T09:04:52.882Z,1015.21
2022-08-28T09:05:53.205Z,1015.26
2022-08-28T09:06:52.865Z,1015.29
2022-08-28T09:07:53.335Z,1015.30
2022-08-28T09:08:53.626Z,1015.27
2022-08-28T09:09:52.828Z,1015.25
2022-08-28T09:10:52.825Z,1015.29
2022-08-28T09:11:56.552Z,1015.35
2022-08-28T09:12:52.796Z,1015.31
2022-08-28T09:13:52.806Z,1015.26
2022-08-28T09:14:52.787Z,1015.26
2022-08-28T09:15:52.849Z,1015.23
2022-08-28T09:16:52.840Z,1015.22
2022-08-28T09:17:52.983Z,1015.38
2022-08-28T09:18:52.728Z,1015.27
2022-08-28T09:19:52.750Z,1015.23
2022-08-28T09:20:52.711Z,1015.38
2022-08-28T09:21:52.741Z,1015.36
2022-08-28T09:22:52.710Z,1015.34
2022-08-28T09:23:53.517Z,1015.27
2022-08-28T09:24:53.219Z,1015.31
2022-08-28T09:25:52.755Z,1015.26
2022-08-28T09:26:52.925Z,1015.39
2022-08-28T09:27:52.675Z,1015.32
2022-08-28T09:28:52.788Z,1015.31
2022-08-28T09:29:52.759Z,1015.41
2022-08-28T09:30:52.842Z,1015.34
2022-08-28T09:31:52.966Z,1015.35
2022-08-28T09:32:52.580Z,1015.30
2022-08-28T09:33:52.756Z,1015.44
2022-08-28T09:34:52.845Z,1015.41
2022-08-28T09:35:52.610Z,1015.41
2022-08-28T09:36:52.569Z,1015.41
2022-08-28T09:37:52.545Z,1015.39
2022-08-28T09:38:52.615Z,1015.42
2022-08-28T09:39:52.534Z,1015.44
2022-08-28T09:40:52.500Z,1015.45
2022-08-28T09:41:52.517Z,1015.44
2022-08-28T09:42:52.476Z,1015.38
2022-08-28T09:43:52.465Z,1015.40
2022-08-28T09:44:52.483Z,1015.36
2022-08-28T09:45:52.456Z,1015.41
2022-08-28T09:46:52.456Z,1015.48
2022-08-28T09:47:52.437Z,1015.47
2022-08-28T09:48:52.437Z,1015.46
2022-08-28T09:49:52.388Z,1015.48
2022-08-28T09:50:52.441Z,1015.50
2022-08-28T09:51:52.787Z,1015.41
2022-08-28T09:52:52.367Z,1015.38
2022-08-28T09:53:52.347Z,1015.38
2022-08-28T09:54:52.349Z,1015.44
2022-08-28T09:55:52.366Z,1015.43
2022-08-28T09:56:52.319Z,1015.44
2022-08-28T09:57:52.388Z,1015.37
2022-08-28T09:58:52.317Z,1015.43
2022-08-28T09:59:52.282Z,1015.46
2022-08-28T10:00:52.282Z,1015.45
2022-08-28T10:01:52.508Z,1015.45
2022-08-28T10:02:52.548Z,1015.49
2022-08-28T10:03:52.735Z,1015.49
2022-08-28T10:04:52.259Z,1015.44
2022-08-28T10:05:52.251Z,1015.47
2022-08-28T10:06:52.267Z,1015.52
2022-08-28T10:07:52.231Z,1015.42
2022-08-28T10:08:52.235Z,1015.49
2022-08-28T10:09:52.194Z,1015.45
2022-08-28T10:10:52.984Z,1015.45
2022-08-28T10:11:52.222Z,1015.48
2022-08-28T10:12:52.225Z,1015.42
2022-08-28T10:13:52.162Z,1015.42
2022-08-28T10:14:52.136Z,1015.43
2022-08-28T10:15:52.729Z,1015.41
2022-08-28T10:16:52.179Z,1015.41
2022-08-28T10:17:52.115Z,1015.47
2022-08-28T10:18:52.116Z,1015.43
2022-08-28T10:19:52.077Z,1015.42
2022-08-28T10:20:52.082Z,1015.45
2022-08-28T10:21:52.154Z,1015.41
2022-08-28T10:22:52.056Z,1015.55
2022-08-28T10:23:52.086Z,1015.51
2022-08-28T10:24:52.042Z,1015.51
2022-08-28T10:25:52.025Z,1015.60
2022-08-28T10:26:52.032Z,1015.57
2022-08-28T10:27:51.998Z,1015.61
2022-08-28T10:28:51.990Z,1015.60
2022-08-28T10:29:51.980Z,1015.70
2022-08-28T10:30:52.011Z,1015.66
2022-08-28T10:31:51.975Z,1015.65
2022-08-28T10:32:52.002Z,1015.69
2022-08-28T10:33:51.932Z,1015.71
2022-08-28T10:34:52.226Z,1015.71
2022-08-28T10:35:52.489Z,1015.78
2022-08-28T10:36:51.914Z,1015.65
2022-08-28T10:37:53.028Z,1015.71
2022-08-28T10:38:53.063Z,1015.62
2022-08-28T10:39:52.456Z,1015.63
2022-08-28T10:40:51.852Z,1015.69
2022-08-28T10:41:51.844Z,1015.60
2022-08-28T10:42:51.856Z,1015.71
2022-08-28T10:43:51.824Z,1015.72
2022-08-28T10:44:51.803Z,1015.72
2022-08-28T10:45:51.886Z,1015.70
2022-08-28T10:46:51.785Z,1015.70
2022-08-28T10:47:51.775Z,1015.72
2022-08-28T10:48:51.785Z,1015.76
2022-08-28T10:49:51.753Z,1015.74
2022-08-28T10:50:51.766Z,1015.66
2022-08-28T10:51:52.217Z,1015.68
2022-08-28T10:52:57.927Z,1015.70
2022-08-28T10:53:51.728Z,1015.75
2022-08-28T10:54:51.711Z,1015.76
2022-08-28T10:55:51.685Z,1015.78
2022-08-28T10:56:56.477Z,1015.80
2022-08-28T10:57:52.665Z,1015.75
2022-08-28T10:58:51.709Z,1015.82
2022-08-28T10:59:51.646Z,1015.84
2022-08-28T11:00:51.627Z,1015.92
2022-08-28T11:01:51.968Z,1015.92
2022-08-28T11:02:51.689Z,1015.80
2022-08-28T11:03:51.974Z,1015.81
2022-08-28T11:04:55.309Z,1015.79
2022-08-28T11:05:53.919Z,1015.78
2022-08-28T11:06:51.569Z,1015.85
2022-08-28T11:07:51.580Z,1015.82
2022-08-28T11:08:51.723Z,1015.84
2022-08-28T11:09:51.532Z,1015.80
2022-08-28T11:10:51.521Z,1015.84
2022-08-28T11:11:51.517Z,1015.83
2022-08-28T11:12:51.506Z,1015.83
2022-08-28T11:13:51.523Z,1015.89
2022-08-28T11:14:51.481Z,1015.84
2022-08-28T11:15:51.832Z,1015.89
2022-08-28T11:16:51.605Z,1015.81
2022-08-28T11:17:51.461Z,1015.92
2022-08-28T11:18:51.453Z,1015.84
2022-08-28T11:19:52.570Z,1015.86
2022-08-28T11:20:51.427Z,1015.86
2022-08-28T11:21:51.425Z,1015.83
2022-08-28T11:22:51.396Z,1015.86
2022-08-28T11:23:51.445Z,1015.85
2022-08-28T11:24:51.404Z,1015.86
2022-08-28T11:25:52.166Z,1015.83
2022-08-28T11:26:51.374Z,1015.79
2022-08-28T11:27:51.354Z,1015.85
2022-08-28T11:28:51.646Z,1015.85
2022-08-28T11:29:51.314Z,1015.88
2022-08-28T11:30:51.371Z,1015.90
2022-08-28T11:31:51.306Z,1015.90
2022-08-28T11:32:51.305Z,1015.91
2022-08-28T11:33:51.318Z,1015.93
2022-08-28T11:34:51.318Z,1015.97
2022-08-28T11:35:51.256Z,1015.90
2022-08-28T11:36:51.326Z,1015.95
2022-08-28T11:37:51.319Z,1016.08
2022-08-28T11:38:51.248Z,1016.06
2022-08-28T11:39:51.274Z,1016.15
2022-08-28T11:40:51.223Z,1016.02
2022-08-28T11:41:51.520Z,1015.99
2022-08-28T11:42:51.204Z,1016.00
2022-08-28T11:43:51.187Z,1015.98
2022-08-28T11:44:51.179Z,1016.06
2022-08-28T11:45:51.225Z,1016.11
2022-08-28T11:46:51.175Z,1016.07
2022-08-28T11:47:51.150Z,1016.05
2022-08-28T11:48:51.169Z,1016.15
2022-08-28T11:49:51.924Z,1016.12
2022-08-28T11:50:51.098Z,1016.05
2022-08-28T11:51:51.108Z,1016.13
2022-08-28T11:52:51.083Z,1016.12
2022-08-28T11:53:51.092Z,1016.17
2022-08-28T11:54:51.141Z,1016.11
2022-08-28T11:55:51.062Z,1016.14
2022-08-28T11:56:51.048Z,1016.16
2022-08-28T11:57:51.054Z,1016.19
2022-08-28T11:58:51.046Z,1016.19
2022-08-28T11:59:50.994Z,1016.12
2022-08-28T12:00:51.776Z,1016.18
2022-08-28T12:01:51.016Z,1016.17
2022-08-28T12:02:51.153Z,1016.16
2022-08-28T12:03:50.981Z,1016.13
2022-08-28T12:04:50.996Z,1016.22
2022-08-28T12:05:51.037Z,1016.08